sensor_id;sensor_type;location;lat;lon;timestamp;temperature;humidity
78448;SHT31;67742;51.972;5.682;2023-10-19T00:00:21;13.8;73.1
78448;SHT31;67742;51.972;5.682;2023-10-19T00:02:52;13.8;72.8
78448;SHT31;67742;51.972;5.682;2023-10-19T00:05:21;13.8;72.4
78448;SHT31;67742;51.972;5.682;2023-10-19T00:07:52;13.8;73.0
78448;SHT31;67742;51.972;5.682;2023-10-19T00:10:24;13.9;73.5
78448;SHT31;67742;51.972;5.682;2023-10-19T00:12:58;13.9;73.3
78448;SHT31;67742;51.972;5.682;2023-10-19T00:15:31;13.9;73.4
78448;SHT31;67742;51.972;5.682;2023-10-19T00:18:01;13.9;73.7
78448;SHT31;67742;51.972;5.682;2023-10-19T00:20:40;13.9;73.4
78448;SHT31;67742;51.972;5.682;2023-10-19T00:23:18;13.9;73.7
78448;SHT31;67742;51.972;5.682;2023-10-19T00:25:53;13.9;74.0
78448;SHT31;67742;51.972;5.682;2023-10-19T00:28:21;13.9;74.0
78448;SHT31;67742;51.972;5.682;2023-10-19T00:30:53;14.0;73.9
78448;SHT31;67742;51.972;5.682;2023-10-19T00:33:26;14.0;74.2
78448;SHT31;67742;51.972;5.682;2023-10-19T00:35:58;14.0;74.3
78448;SHT31;67742;51.972;5.682;2023-10-19T00:38:34;14.0;74.1
78448;SHT31;67742;51.972;5.682;2023-10-19T00:41:16;14.0;74.4
78448;SHT31;67742;51.972;5.682;2023-10-19T00:43:49;14.1;74.4
78448;SHT31;67742;51.972;5.682;2023-10-19T00:46:24;14.1;74.3
78448;SHT31;67742;51.972;5.682;2023-10-19T00:49:01;14.1;74.4
78448;SHT31;67742;51.972;5.682;2023-10-19T00:51:35;14.1;74.5
78448;SHT31;67742;51.972;5.682;2023-10-19T00:54:18;14.1;74.5
78448;SHT31;67742;51.972;5.682;2023-10-19T00:56:54;14.1;74.8
78448;SHT31;67742;51.972;5.682;2023-10-19T00:59:29;14.2;74.9
78448;SHT31;67742;51.972;5.682;2023-10-19T01:02:02;14.2;75.0
78448;SHT31;67742;51.972;5.682;2023-10-19T01:04:38;14.2;75.2
78448;SHT31;67742;51.972;5.682;2023-10-19T01:07:09;14.2;75.3
78448;SHT31;67742;51.972;5.682;2023-10-19T01:09:43;14.2;75.4
78448;SHT31;67742;51.972;5.682;2023-10-19T01:12:13;14.3;75.2
78448;SHT31;67742;51.972;5.682;2023-10-19T01:15:07;14.3;75.1
78448;SHT31;67742;51.972;5.682;2023-10-19T01:17:40;14.3;75.1
78448;SHT31;67742;51.972;5.682;2023-10-19T01:20:12;14.3;75.1
78448;SHT31;67742;51.972;5.682;2023-10-19T01:22:52;14.4;75.2
78448;SHT31;67742;51.972;5.682;2023-10-19T01:25:47;14.4;75.2
78448;SHT31;67742;51.972;5.682;2023-10-19T01:28:25;14.4;75.0
78448;SHT31;67742;51.972;5.682;2023-10-19T01:30:55;14.5;75.0
78448;SHT31;67742;51.972;5.682;2023-10-19T01:33:26;14.5;75.1
78448;SHT31;67742;51.972;5.682;2023-10-19T01:35:57;14.5;75.2
78448;SHT31;67742;51.972;5.682;2023-10-19T01:38:48;14.5;75.4
78448;SHT31;67742;51.972;5.682;2023-10-19T01:41:21;14.6;75.9
78448;SHT31;67742;51.972;5.682;2023-10-19T01:43:51;14.6;76.1
78448;SHT31;67742;51.972;5.682;2023-10-19T01:46:22;14.6;76.4
78448;SHT31;67742;51.972;5.682;2023-10-19T01:48:56;14.6;76.2
78448;SHT31;67742;51.972;5.682;2023-10-19T01:51:26;14.6;76.2
78448;SHT31;67742;51.972;5.682;2023-10-19T01:53:56;14.6;76.6
78448;SHT31;67742;51.972;5.682;2023-10-19T01:56:27;14.7;76.3
78448;SHT31;67742;51.972;5.682;2023-10-19T01:58:56;14.7;76.4
78448;SHT31;67742;51.972;5.682;2023-10-19T02:01:25;14.7;76.6
78448;SHT31;67742;51.972;5.682;2023-10-19T02:04:01;14.7;76.8
78448;SHT31;67742;51.972;5.682;2023-10-19T02:06:33;14.8;76.7
78448;SHT31;67742;51.972;5.682;2023-10-19T02:09:06;14.8;76.8
78448;SHT31;67742;51.972;5.682;2023-10-19T02:11:49;14.8;77.0
78448;SHT31;67742;51.972;5.682;2023-10-19T02:14:19;14.9;76.7
78448;SHT31;67742;51.972;5.682;2023-10-19T02:16:51;14.9;76.9
78448;SHT31;67742;51.972;5.682;2023-10-19T02:19:24;14.9;76.9
78448;SHT31;67742;51.972;5.682;2023-10-19T02:21:56;15.0;76.8
78448;SHT31;67742;51.972;5.682;2023-10-19T02:24:26;15.0;76.9
78448;SHT31;67742;51.972;5.682;2023-10-19T02:26:56;15.0;76.7
78448;SHT31;67742;51.972;5.682;2023-10-19T02:29:25;15.1;76.6
78448;SHT31;67742;51.972;5.682;2023-10-19T02:31:54;15.1;76.8
78448;SHT31;67742;51.972;5.682;2023-10-19T02:34:24;15.1;76.8
78448;SHT31;67742;51.972;5.682;2023-10-19T02:36:52;15.1;76.9
78448;SHT31;67742;51.972;5.682;2023-10-19T02:39:22;15.2;77.4
78448;SHT31;67742;51.972;5.682;2023-10-19T02:41:54;15.2;77.3
78448;SHT31;67742;51.972;5.682;2023-10-19T02:44:27;15.2;77.4
78448;SHT31;67742;51.972;5.682;2023-10-19T02:46:57;15.2;77.3
78448;SHT31;67742;51.972;5.682;2023-10-19T02:49:31;15.3;77.4
78448;SHT31;67742;51.972;5.682;2023-10-19T02:52:05;15.3;77.3
78448;SHT31;67742;51.972;5.682;2023-10-19T02:54:34;15.3;77.2
78448;SHT31;67742;51.972;5.682;2023-10-19T02:57:03;15.4;77.1
78448;SHT31;67742;51.972;5.682;2023-10-19T02:59:33;15.4;77.0
78448;SHT31;67742;51.972;5.682;2023-10-19T03:02:02;15.4;76.8
78448;SHT31;67742;51.972;5.682;2023-10-19T03:04:33;15.4;76.9
78448;SHT31;67742;51.972;5.682;2023-10-19T03:07:03;15.5;76.5
78448;SHT31;67742;51.972;5.682;2023-10-19T03:09:34;15.5;76.8
78448;SHT31;67742;51.972;5.682;2023-10-19T03:12:03;15.5;76.8
78448;SHT31;67742;51.972;5.682;2023-10-19T03:14:36;15.5;76.9
78448;SHT31;67742;51.972;5.682;2023-10-19T03:17:05;15.6;76.8
78448;SHT31;67742;51.972;5.682;2023-10-19T03:19:35;15.6;76.8
78448;SHT31;67742;51.972;5.682;2023-10-19T03:22:04;15.6;76.6
78448;SHT31;67742;51.972;5.682;2023-10-19T03:24:35;15.6;76.8
78448;SHT31;67742;51.972;5.682;2023-10-19T03:27:08;15.7;77.0
78448;SHT31;67742;51.972;5.682;2023-10-19T03:29:39;15.7;77.2
78448;SHT31;67742;51.972;5.682;2023-10-19T03:32:08;15.7;77.5
78448;SHT31;67742;51.972;5.682;2023-10-19T03:34:39;15.7;77.9
78448;SHT31;67742;51.972;5.682;2023-10-19T03:37:11;15.8;77.8
78448;SHT31;67742;51.972;5.682;2023-10-19T03:39:41;15.8;77.9
78448;SHT31;67742;51.972;5.682;2023-10-19T03:42:14;15.8;78.0
78448;SHT31;67742;51.972;5.682;2023-10-19T03:44:43;15.8;78.0
78448;SHT31;67742;51.972;5.682;2023-10-19T03:47:17;15.9;78.1
78448;SHT31;67742;51.972;5.682;2023-10-19T03:49:47;15.9;77.7
78448;SHT31;67742;51.972;5.682;2023-10-19T03:52:17;16.0;77.4
78448;SHT31;67742;51.972;5.682;2023-10-19T03:54:49;16.0;77.5
78448;SHT31;67742;51.972;5.682;2023-10-19T03:57:19;16.0;77.3
78448;SHT31;67742;51.972;5.682;2023-10-19T03:59:49;16.1;77.2
78448;SHT31;67742;51.972;5.682;2023-10-19T04:02:20;16.1;77.1
78448;SHT31;67742;51.972;5.682;2023-10-19T04:04:52;16.1;77.2
78448;SHT31;67742;51.972;5.682;2023-10-19T04:07:22;16.2;77.2
78448;SHT31;67742;51.972;5.682;2023-10-19T04:09:53;16.2;77.1
78448;SHT31;67742;51.972;5.682;2023-10-19T04:12:27;16.2;76.7
78448;SHT31;67742;51.972;5.682;2023-10-19T04:14:59;16.2;76.9
78448;SHT31;67742;51.972;5.682;2023-10-19T04:17:35;16.3;77.2
78448;SHT31;67742;51.972;5.682;2023-10-19T04:20:06;16.3;77.1
78448;SHT31;67742;51.972;5.682;2023-10-19T04:22:43;16.3;76.9
78448;SHT31;67742;51.972;5.682;2023-10-19T04:25:12;16.3;76.7
78448;SHT31;67742;51.972;5.682;2023-10-19T04:27:42;16.4;76.7
78448;SHT31;67742;51.972;5.682;2023-10-19T04:30:13;16.4;76.8
78448;SHT31;67742;51.972;5.682;2023-10-19T04:32:45;16.4;76.8
78448;SHT31;67742;51.972;5.682;2023-10-19T04:35:15;16.4;76.7
78448;SHT31;67742;51.972;5.682;2023-10-19T04:37:48;16.4;76.6
78448;SHT31;67742;51.972;5.682;2023-10-19T04:40:17;16.5;76.8
78448;SHT31;67742;51.972;5.682;2023-10-19T04:42:47;16.5;76.5
78448;SHT31;67742;51.972;5.682;2023-10-19T04:45:16;16.5;76.4
78448;SHT31;67742;51.972;5.682;2023-10-19T04:47:45;16.5;76.2
78448;SHT31;67742;51.972;5.682;2023-10-19T04:50:19;16.5;75.9
78448;SHT31;67742;51.972;5.682;2023-10-19T04:52:47;16.5;75.3
78448;SHT31;67742;51.972;5.682;2023-10-19T04:55:16;16.5;74.9
78448;SHT31;67742;51.972;5.682;2023-10-19T04:57:45;16.5;74.9
78448;SHT31;67742;51.972;5.682;2023-10-19T05:00:18;16.5;74.7
78448;SHT31;67742;51.972;5.682;2023-10-19T05:02:48;16.5;74.6
78448;SHT31;67742;51.972;5.682;2023-10-19T05:05:18;16.5;74.6
78448;SHT31;67742;51.972;5.682;2023-10-19T05:07:47;16.5;74.4
78448;SHT31;67742;51.972;5.682;2023-10-19T05:10:16;16.5;74.1
78448;SHT31;67742;51.972;5.682;2023-10-19T05:12:46;16.5;74.2
78448;SHT31;67742;51.972;5.682;2023-10-19T05:15:14;16.5;74.1
78448;SHT31;67742;51.972;5.682;2023-10-19T05:17:44;16.5;74.0
78448;SHT31;67742;51.972;5.682;2023-10-19T05:20:14;16.5;74.2
78448;SHT31;67742;51.972;5.682;2023-10-19T05:22:43;16.5;74.5
78448;SHT31;67742;51.972;5.682;2023-10-19T05:25:11;16.5;74.6
78448;SHT31;67742;51.972;5.682;2023-10-19T05:27:40;16.5;74.7
78448;SHT31;67742;51.972;5.682;2023-10-19T05:30:13;16.4;74.8
78448;SHT31;67742;51.972;5.682;2023-10-19T05:32:42;16.4;75.1
78448;SHT31;67742;51.972;5.682;2023-10-19T05:35:12;16.4;75.2
78448;SHT31;67742;51.972;5.682;2023-10-19T05:37:46;16.4;75.1
78448;SHT31;67742;51.972;5.682;2023-10-19T05:40:15;16.4;75.4
78448;SHT31;67742;51.972;5.682;2023-10-19T05:42:45;16.4;75.2
78448;SHT31;67742;51.972;5.682;2023-10-19T05:45:14;16.4;75.3
78448;SHT31;67742;51.972;5.682;2023-10-19T05:47:44;16.4;75.4
78448;SHT31;67742;51.972;5.682;2023-10-19T05:50:12;16.4;75.4
78448;SHT31;67742;51.972;5.682;2023-10-19T05:52:43;16.4;75.4
78448;SHT31;67742;51.972;5.682;2023-10-19T05:55:13;16.5;75.6
78448;SHT31;67742;51.972;5.682;2023-10-19T05:57:42;16.5;75.5
78448;SHT31;67742;51.972;5.682;2023-10-19T06:00:13;16.5;75.4
78448;SHT31;67742;51.972;5.682;2023-10-19T06:02:46;16.5;75.6
78448;SHT31;67742;51.972;5.682;2023-10-19T06:05:16;16.5;75.7
78448;SHT31;67742;51.972;5.682;2023-10-19T06:07:47;16.5;75.7
78448;SHT31;67742;51.972;5.682;2023-10-19T06:10:17;16.5;75.6
78448;SHT31;67742;51.972;5.682;2023-10-19T06:12:50;16.5;75.6
78448;SHT31;67742;51.972;5.682;2023-10-19T06:15:20;16.5;75.6
78448;SHT31;67742;51.972;5.682;2023-10-19T06:17:50;16.5;75.5
78448;SHT31;67742;51.972;5.682;2023-10-19T06:20:19;16.5;75.7
78448;SHT31;67742;51.972;5.682;2023-10-19T06:22:50;16.5;75.6
78448;SHT31;67742;51.972;5.682;2023-10-19T06:25:21;16.6;75.3
78448;SHT31;67742;51.972;5.682;2023-10-19T06:27:53;16.6;75.7
78448;SHT31;67742;51.972;5.682;2023-10-19T06:30:24;16.6;75.8
78448;SHT31;67742;51.972;5.682;2023-10-19T06:32:54;16.6;75.7
78448;SHT31;67742;51.972;5.682;2023-10-19T06:35:25;16.6;75.9
78448;SHT31;67742;51.972;5.682;2023-10-19T06:37:54;16.6;75.8
78448;SHT31;67742;51.972;5.682;2023-10-19T06:40:23;16.6;75.7
78448;SHT31;67742;51.972;5.682;2023-10-19T06:42:55;16.6;75.8
78448;SHT31;67742;51.972;5.682;2023-10-19T06:45:25;16.6;75.8
78448;SHT31;67742;51.972;5.682;2023-10-19T06:47:56;16.7;75.4
78448;SHT31;67742;51.972;5.682;2023-10-19T06:50:26;16.7;75.4
78448;SHT31;67742;51.972;5.682;2023-10-19T06:52:55;16.7;75.4
78448;SHT31;67742;51.972;5.682;2023-10-19T06:55:24;16.7;75.4
78448;SHT31;67742;51.972;5.682;2023-10-19T06:57:54;16.7;75.6
78448;SHT31;67742;51.972;5.682;2023-10-19T07:00:24;16.7;75.6
78448;SHT31;67742;51.972;5.682;2023-10-19T07:02:56;16.7;75.4
78448;SHT31;67742;51.972;5.682;2023-10-19T07:05:26;16.7;75.5
78448;SHT31;67742;51.972;5.682;2023-10-19T07:07:57;16.7;75.2
78448;SHT31;67742;51.972;5.682;2023-10-19T07:10:28;16.7;75.3
78448;SHT31;67742;51.972;5.682;2023-10-19T07:12:58;16.7;75.3
78448;SHT31;67742;51.972;5.682;2023-10-19T07:15:27;16.7;75.4
78448;SHT31;67742;51.972;5.682;2023-10-19T07:17:56;16.7;75.6
78448;SHT31;67742;51.972;5.682;2023-10-19T07:20:25;16.7;75.3
78448;SHT31;67742;51.972;5.682;2023-10-19T07:22:56;16.8;75.5
78448;SHT31;67742;51.972;5.682;2023-10-19T07:25:26;16.8;75.7
78448;SHT31;67742;51.972;5.682;2023-10-19T07:27:57;16.8;75.5
78448;SHT31;67742;51.972;5.682;2023-10-19T07:30:26;16.8;75.6
78448;SHT31;67742;51.972;5.682;2023-10-19T07:32:57;16.8;75.6
78448;SHT31;67742;51.972;5.682;2023-10-19T07:35:27;16.8;75.7
78448;SHT31;67742;51.972;5.682;2023-10-19T07:37:57;16.8;75.6
78448;SHT31;67742;51.972;5.682;2023-10-19T07:40:30;16.9;75.6
78448;SHT31;67742;51.972;5.682;2023-10-19T07:42:58;16.9;75.7
78448;SHT31;67742;51.972;5.682;2023-10-19T07:45:27;16.9;75.5
78448;SHT31;67742;51.972;5.682;2023-10-19T07:47:58;16.9;75.6
78448;SHT31;67742;51.972;5.682;2023-10-19T07:50:33;16.9;75.7
78448;SHT31;67742;51.972;5.682;2023-10-19T07:53:05;16.9;75.6
78448;SHT31;67742;51.972;5.682;2023-10-19T07:55:35;16.9;75.5
78448;SHT31;67742;51.972;5.682;2023-10-19T07:58:05;17.0;75.5
78448;SHT31;67742;51.972;5.682;2023-10-19T08:00:34;17.0;75.6
78448;SHT31;67742;51.972;5.682;2023-10-19T08:03:03;17.0;75.7
78448;SHT31;67742;51.972;5.682;2023-10-19T08:05:33;17.0;75.6
78448;SHT31;67742;51.972;5.682;2023-10-19T08:08:02;17.0;75.7
78448;SHT31;67742;51.972;5.682;2023-10-19T08:10:32;17.0;75.7
78448;SHT31;67742;51.972;5.682;2023-10-19T08:13:03;17.0;75.7
78448;SHT31;67742;51.972;5.682;2023-10-19T08:15:32;17.0;75.7
78448;SHT31;67742;51.972;5.682;2023-10-19T08:18:01;17.1;75.8
78448;SHT31;67742;51.972;5.682;2023-10-19T08:20:32;17.1;75.8
78448;SHT31;67742;51.972;5.682;2023-10-19T08:23:04;17.1;76.0
78448;SHT31;67742;51.972;5.682;2023-10-19T08:25:33;17.1;75.9
78448;SHT31;67742;51.972;5.682;2023-10-19T08:28:06;17.1;75.9
78448;SHT31;67742;51.972;5.682;2023-10-19T08:30:34;17.2;75.8
78448;SHT31;67742;51.972;5.682;2023-10-19T08:33:04;17.2;75.9
78448;SHT31;67742;51.972;5.682;2023-10-19T08:35:34;17.2;75.8
78448;SHT31;67742;51.972;5.682;2023-10-19T08:38:03;17.2;76.0
78448;SHT31;67742;51.972;5.682;2023-10-19T08:40:38;17.2;75.8
78448;SHT31;67742;51.972;5.682;2023-10-19T08:43:08;17.3;76.0
78448;SHT31;67742;51.972;5.682;2023-10-19T08:45:41;17.3;76.2
78448;SHT31;67742;51.972;5.682;2023-10-19T08:48:10;17.3;76.5
78448;SHT31;67742;51.972;5.682;2023-10-19T08:50:40;17.3;76.3
78448;SHT31;67742;51.972;5.682;2023-10-19T08:53:10;17.4;76.3
78448;SHT31;67742;51.972;5.682;2023-10-19T08:55:40;17.4;76.6
78448;SHT31;67742;51.972;5.682;2023-10-19T08:58:10;17.4;76.8
78448;SHT31;67742;51.972;5.682;2023-10-19T09:00:46;17.5;76.7
78448;SHT31;67742;51.972;5.682;2023-10-19T09:03:18;17.5;76.8
78448;SHT31;67742;51.972;5.682;2023-10-19T09:05:48;17.5;76.8
78448;SHT31;67742;51.972;5.682;2023-10-19T09:08:18;17.6;76.9
78448;SHT31;67742;51.972;5.682;2023-10-19T09:10:49;17.6;76.8
78448;SHT31;67742;51.972;5.682;2023-10-19T09:13:20;17.6;76.9
78448;SHT31;67742;51.972;5.682;2023-10-19T09:15:49;17.7;76.9
78448;SHT31;67742;51.972;5.682;2023-10-19T09:18:21;17.7;76.2
78448;SHT31;67742;51.972;5.682;2023-10-19T09:20:52;17.7;76.1
78448;SHT31;67742;51.972;5.682;2023-10-19T09:23:25;17.8;75.9
78448;SHT31;67742;51.972;5.682;2023-10-19T09:25:56;17.8;76.1
78448;SHT31;67742;51.972;5.682;2023-10-19T09:28:27;17.8;76.0
78448;SHT31;67742;51.972;5.682;2023-10-19T09:30:55;17.9;76.1
78448;SHT31;67742;51.972;5.682;2023-10-19T09:33:25;17.9;76.3
78448;SHT31;67742;51.972;5.682;2023-10-19T09:35:59;17.9;76.6
78448;SHT31;67742;51.972;5.682;2023-10-19T09:38:28;17.9;76.1
78448;SHT31;67742;51.972;5.682;2023-10-19T09:40:57;18.0;76.4
78448;SHT31;67742;51.972;5.682;2023-10-19T09:43:31;18.0;76.7
78448;SHT31;67742;51.972;5.682;2023-10-19T09:46:06;18.0;76.7
78448;SHT31;67742;51.972;5.682;2023-10-19T09:48:39;18.1;76.9
78448;SHT31;67742;51.972;5.682;2023-10-19T09:51:09;18.1;77.4
78448;SHT31;67742;51.972;5.682;2023-10-19T09:53:39;18.2;76.9
78448;SHT31;67742;51.972;5.682;2023-10-19T09:56:15;18.2;76.5
78448;SHT31;67742;51.972;5.682;2023-10-19T09:58:49;18.3;76.9
78448;SHT31;67742;51.972;5.682;2023-10-19T10:01:19;18.4;76.0
78448;SHT31;67742;51.972;5.682;2023-10-19T10:03:51;18.4;75.6
78448;SHT31;67742;51.972;5.682;2023-10-19T10:06:29;18.5;75.9
78448;SHT31;67742;51.972;5.682;2023-10-19T10:09:00;18.5;75.3
78448;SHT31;67742;51.972;5.682;2023-10-19T10:11:30;18.6;75.8
78448;SHT31;67742;51.972;5.682;2023-10-19T10:14:00;18.6;76.2
78448;SHT31;67742;51.972;5.682;2023-10-19T10:16:29;18.6;75.9
78448;SHT31;67742;51.972;5.682;2023-10-19T10:18:59;18.7;74.7
78448;SHT31;67742;51.972;5.682;2023-10-19T10:21:29;18.7;75.0
78448;SHT31;67742;51.972;5.682;2023-10-19T10:24:00;18.8;75.4
78448;SHT31;67742;51.972;5.682;2023-10-19T10:26:58;18.8;74.6
78448;SHT31;67742;51.972;5.682;2023-10-19T10:29:29;18.9;74.7
78448;SHT31;67742;51.972;5.682;2023-10-19T10:31:58;18.9;75.4
78448;SHT31;67742;51.972;5.682;2023-10-19T10:34:45;18.9;75.4
78448;SHT31;67742;51.972;5.682;2023-10-19T10:37:16;19.0;73.6
78448;SHT31;67742;51.972;5.682;2023-10-19T10:39:44;19.0;74.0
78448;SHT31;67742;51.972;5.682;2023-10-19T10:42:13;19.0;74.6
78448;SHT31;67742;51.972;5.682;2023-10-19T10:44:44;19.1;74.6
78448;SHT31;67742;51.972;5.682;2023-10-19T10:47:17;19.1;74.5
78448;SHT31;67742;51.972;5.682;2023-10-19T10:49:53;19.2;74.1
78448;SHT31;67742;51.972;5.682;2023-10-19T10:52:25;19.2;74.2
78448;SHT31;67742;51.972;5.682;2023-10-19T10:54:56;19.2;74.4
78448;SHT31;67742;51.972;5.682;2023-10-19T10:57:32;19.3;74.1
78448;SHT31;67742;51.972;5.682;2023-10-19T11:00:05;19.3;73.7
78448;SHT31;67742;51.972;5.682;2023-10-19T11:02:37;19.4;73.7
78448;SHT31;67742;51.972;5.682;2023-10-19T11:05:11;19.4;73.5
78448;SHT31;67742;51.972;5.682;2023-10-19T11:08:02;19.4;73.6
78448;SHT31;67742;51.972;5.682;2023-10-19T11:10:28;19.5;73.8
78448;SHT31;67742;51.972;5.682;2023-10-19T11:13:01;19.5;73.6
78448;SHT31;67742;51.972;5.682;2023-10-19T11:15:30;19.5;73.8
78448;SHT31;67742;51.972;5.682;2023-10-19T11:17:59;19.6;74.5
78448;SHT31;67742;51.972;5.682;2023-10-19T11:20:28;19.6;73.9
78448;SHT31;67742;51.972;5.682;2023-10-19T11:22:57;19.7;73.8
78448;SHT31;67742;51.972;5.682;2023-10-19T11:25:30;19.7;73.9
78448;SHT31;67742;51.972;5.682;2023-10-19T11:28:00;19.8;72.3
78448;SHT31;67742;51.972;5.682;2023-10-19T11:30:32;19.8;72.4
78448;SHT31;67742;51.972;5.682;2023-10-19T11:33:01;19.9;72.4
78448;SHT31;67742;51.972;5.682;2023-10-19T11:35:30;19.9;71.4
78448;SHT31;67742;51.972;5.682;2023-10-19T11:38:01;20.0;72.5
78448;SHT31;67742;51.972;5.682;2023-10-19T11:40:30;20.0;72.7
78448;SHT31;67742;51.972;5.682;2023-10-19T11:42:59;20.0;71.4
78448;SHT31;67742;51.972;5.682;2023-10-19T11:45:27;20.1;71.9
78448;SHT31;67742;51.972;5.682;2023-10-19T11:47:57;20.1;70.4
78448;SHT31;67742;51.972;5.682;2023-10-19T11:50:26;20.1;70.1
78448;SHT31;67742;51.972;5.682;2023-10-19T11:52:54;20.2;70.2
78448;SHT31;67742;51.972;5.682;2023-10-19T11:55:23;20.2;69.8
78448;SHT31;67742;51.972;5.682;2023-10-19T11:57:52;20.2;69.7
78448;SHT31;67742;51.972;5.682;2023-10-19T12:00:21;20.3;69.6
78448;SHT31;67742;51.972;5.682;2023-10-19T12:02:55;20.3;69.5
78448;SHT31;67742;51.972;5.682;2023-10-19T12:05:24;20.3;68.0
78448;SHT31;67742;51.972;5.682;2023-10-19T12:07:52;20.3;68.6
78448;SHT31;67742;51.972;5.682;2023-10-19T12:10:23;20.3;69.3
78448;SHT31;67742;51.972;5.682;2023-10-19T12:12:57;20.3;68.9
78448;SHT31;67742;51.972;5.682;2023-10-19T12:15:25;20.3;68.2
78448;SHT31;67742;51.972;5.682;2023-10-19T12:17:54;20.4;68.7
78448;SHT31;67742;51.972;5.682;2023-10-19T12:20:23;20.4;68.4
78448;SHT31;67742;51.972;5.682;2023-10-19T12:22:53;20.4;69.0
78448;SHT31;67742;51.972;5.682;2023-10-19T12:25:24;20.4;68.7
78448;SHT31;67742;51.972;5.682;2023-10-19T12:27:59;20.4;69.0
78448;SHT31;67742;51.972;5.682;2023-10-19T12:30:30;20.4;69.2
78448;SHT31;67742;51.972;5.682;2023-10-19T12:33:03;20.4;69.3
78448;SHT31;67742;51.972;5.682;2023-10-19T12:35:38;20.4;69.3
78448;SHT31;67742;51.972;5.682;2023-10-19T12:38:16;20.5;69.3
78448;SHT31;67742;51.972;5.682;2023-10-19T12:40:47;20.5;69.4
78448;SHT31;67742;51.972;5.682;2023-10-19T12:43:18;20.5;69.2
78448;SHT31;67742;51.972;5.682;2023-10-19T12:45:49;20.5;68.8
78448;SHT31;67742;51.972;5.682;2023-10-19T12:48:24;20.5;68.2
78448;SHT31;67742;51.972;5.682;2023-10-19T12:50:59;20.5;68.0
78448;SHT31;67742;51.972;5.682;2023-10-19T12:53:28;20.5;68.0
78448;SHT31;67742;51.972;5.682;2023-10-19T12:55:57;20.6;67.8
78448;SHT31;67742;51.972;5.682;2023-10-19T12:58:26;20.6;68.0
78448;SHT31;67742;51.972;5.682;2023-10-19T13:00:56;20.6;68.0
78448;SHT31;67742;51.972;5.682;2023-10-19T13:03:25;20.6;68.0
78448;SHT31;67742;51.972;5.682;2023-10-19T13:06:00;20.5;67.5
78448;SHT31;67742;51.972;5.682;2023-10-19T13:08:31;20.5;67.1
78448;SHT31;67742;51.972;5.682;2023-10-19T13:11:01;20.5;67.3
78448;SHT31;67742;51.972;5.682;2023-10-19T13:13:32;20.5;67.3
78448;SHT31;67742;51.972;5.682;2023-10-19T13:16:03;20.5;68.1
78448;SHT31;67742;51.972;5.682;2023-10-19T13:18:35;20.5;68.7
78448;SHT31;67742;51.972;5.682;2023-10-19T13:21:06;20.5;69.0
78448;SHT31;67742;51.972;5.682;2023-10-19T13:23:38;20.5;68.1
78448;SHT31;67742;51.972;5.682;2023-10-19T13:26:10;20.4;68.7
78448;SHT31;67742;51.972;5.682;2023-10-19T13:28:45;20.4;69.2
78448;SHT31;67742;51.972;5.682;2023-10-19T13:31:17;20.4;69.4
78448;SHT31;67742;51.972;5.682;2023-10-19T13:33:46;20.4;69.8
78448;SHT31;67742;51.972;5.682;2023-10-19T13:36:15;20.4;70.0
78448;SHT31;67742;51.972;5.682;2023-10-19T13:38:44;20.4;70.0
78448;SHT31;67742;51.972;5.682;2023-10-19T13:41:12;20.4;70.1
78448;SHT31;67742;51.972;5.682;2023-10-19T13:43:43;20.4;70.2
78448;SHT31;67742;51.972;5.682;2023-10-19T13:46:12;20.4;70.3
78448;SHT31;67742;51.972;5.682;2023-10-19T13:48:40;20.4;70.5
78448;SHT31;67742;51.972;5.682;2023-10-19T13:51:15;20.4;70.3
78448;SHT31;67742;51.972;5.682;2023-10-19T13:53:47;20.4;70.5
78448;SHT31;67742;51.972;5.682;2023-10-19T13:56:16;20.4;70.8
78448;SHT31;67742;51.972;5.682;2023-10-19T13:58:45;20.4;70.6
78448;SHT31;67742;51.972;5.682;2023-10-19T14:01:15;20.4;70.8
78448;SHT31;67742;51.972;5.682;2023-10-19T14:03:44;20.4;70.8
78448;SHT31;67742;51.972;5.682;2023-10-19T14:06:14;20.4;70.5
78448;SHT31;67742;51.972;5.682;2023-10-19T14:08:46;20.5;70.6
78448;SHT31;67742;51.972;5.682;2023-10-19T14:11:15;20.5;70.2
78448;SHT31;67742;51.972;5.682;2023-10-19T14:13:43;20.5;70.2
78448;SHT31;67742;51.972;5.682;2023-10-19T14:16:12;20.5;70.2
78448;SHT31;67742;51.972;5.682;2023-10-19T14:18:44;20.5;70.2
78448;SHT31;67742;51.972;5.682;2023-10-19T14:21:15;20.5;70.2
78448;SHT31;67742;51.972;5.682;2023-10-19T14:23:45;20.5;70.2
78448;SHT31;67742;51.972;5.682;2023-10-19T14:26:14;20.5;69.9
78448;SHT31;67742;51.972;5.682;2023-10-19T14:28:44;20.5;69.9
78448;SHT31;67742;51.972;5.682;2023-10-19T14:31:12;20.5;69.9
78448;SHT31;67742;51.972;5.682;2023-10-19T14:33:43;20.4;69.7
78448;SHT31;67742;51.972;5.682;2023-10-19T14:36:11;20.4;69.9
78448;SHT31;67742;51.972;5.682;2023-10-19T14:38:40;20.4;69.9
78448;SHT31;67742;51.972;5.682;2023-10-19T14:41:13;20.4;69.8
78448;SHT31;67742;51.972;5.682;2023-10-19T14:43:42;20.4;69.9
78448;SHT31;67742;51.972;5.682;2023-10-19T14:46:10;20.4;70.2
78448;SHT31;67742;51.972;5.682;2023-10-19T14:48:39;20.4;70.3
78448;SHT31;67742;51.972;5.682;2023-10-19T14:51:09;20.4;70.2
78448;SHT31;67742;51.972;5.682;2023-10-19T14:53:38;20.3;70.2
78448;SHT31;67742;51.972;5.682;2023-10-19T14:56:08;20.3;70.2
78448;SHT31;67742;51.972;5.682;2023-10-19T14:58:38;20.3;70.4
78448;SHT31;67742;51.972;5.682;2023-10-19T15:01:07;20.3;70.6
78448;SHT31;67742;51.972;5.682;2023-10-19T15:03:41;20.3;70.4
78448;SHT31;67742;51.972;5.682;2023-10-19T15:06:09;20.3;70.4
78448;SHT31;67742;51.972;5.682;2023-10-19T15:08:40;20.2;70.4
78448;SHT31;67742;51.972;5.682;2023-10-19T15:11:09;20.2;70.4
78448;SHT31;67742;51.972;5.682;2023-10-19T15:13:38;20.2;70.4
78448;SHT31;67742;51.972;5.682;2023-10-19T15:16:10;20.2;70.3
78448;SHT31;67742;51.972;5.682;2023-10-19T15:18:39;20.2;70.5
78448;SHT31;67742;51.972;5.682;2023-10-19T15:21:09;20.1;70.5
78448;SHT31;67742;51.972;5.682;2023-10-19T15:23:40;20.1;70.7
78448;SHT31;67742;51.972;5.682;2023-10-19T15:26:09;20.1;70.4
78448;SHT31;67742;51.972;5.682;2023-10-19T15:28:37;20.1;70.4
78448;SHT31;67742;51.972;5.682;2023-10-19T15:31:06;20.1;70.4
78448;SHT31;67742;51.972;5.682;2023-10-19T15:33:35;20.1;70.1
78448;SHT31;67742;51.972;5.682;2023-10-19T15:36:05;20.0;70.2
78448;SHT31;67742;51.972;5.682;2023-10-19T15:38:33;20.0;70.3
78448;SHT31;67742;51.972;5.682;2023-10-19T15:41:01;20.0;70.4
78448;SHT31;67742;51.972;5.682;2023-10-19T15:43:30;20.0;70.7
78448;SHT31;67742;51.972;5.682;2023-10-19T15:45:59;20.0;70.9
78448;SHT31;67742;51.972;5.682;2023-10-19T15:48:31;19.9;71.1
78448;SHT31;67742;51.972;5.682;2023-10-19T15:51:01;19.9;71.1
78448;SHT31;67742;51.972;5.682;2023-10-19T15:53:32;19.9;70.9
78448;SHT31;67742;51.972;5.682;2023-10-19T15:56:02;19.9;70.9
78448;SHT31;67742;51.972;5.682;2023-10-19T15:58:32;19.9;70.9
78448;SHT31;67742;51.972;5.682;2023-10-19T16:01:00;19.9;71.0
78448;SHT31;67742;51.972;5.682;2023-10-19T16:03:33;19.9;70.8
78448;SHT31;67742;51.972;5.682;2023-10-19T16:06:03;19.8;70.5
78448;SHT31;67742;51.972;5.682;2023-10-19T16:08:34;19.8;70.5
78448;SHT31;67742;51.972;5.682;2023-10-19T16:11:04;19.8;70.6
78448;SHT31;67742;51.972;5.682;2023-10-19T16:13:33;19.8;70.4
78448;SHT31;67742;51.972;5.682;2023-10-19T16:16:04;19.7;70.3
78448;SHT31;67742;51.972;5.682;2023-10-19T16:18:33;19.7;70.4
78448;SHT31;67742;51.972;5.682;2023-10-19T16:21:06;19.7;70.5
78448;SHT31;67742;51.972;5.682;2023-10-19T16:23:34;19.7;70.5
78448;SHT31;67742;51.972;5.682;2023-10-19T16:26:05;19.7;70.5